Time;durP1;ratioP1;P1;durP2;ratioP2;P2;SDS_P1;SDS_P2;PMS_P1;PMS_P2;Temp;Humidity;BMP_temperature;BMP_pressure;BME280_temperature;BME280_humidity;BME280_pressure;Samples;Min_cycle;Max_cycle;Signal;HPM_P1;HPM_P2
2022/01/08 00:00:46;;;;;;;63.27;25.03;;;;;;;-1.61;100.00;98648.63;4823589;29;20394;-59
2022/01/08 00:03:11;;;;;;;63.13;25.03;;;;;;;-1.65;100.00;98655.13;4823618;29;20041;-60
2022/01/08 00:05:37;;;;;;;66.30;25.73;;;;;;;-1.58;100.00;98657.06;4823242;29;20058;-60
2022/01/08 00:08:02;;;;;;;65.43;25.87;;;;;;;-1.67;100.00;98652.63;4821840;29;20030;-60
2022/01/08 00:10:31;;;;;;;63.47;24.03;;;;;;;-1.71;100.00;98651.22;4823552;29;20030;-61
2022/01/08 00:13:01;;;;;;;69.93;27.23;;;;;;;-1.71;100.00;98650.41;4823405;29;20419;-60
2022/01/08 00:15:27;;;;;;;66.88;26.40;;;;;;;-1.74;100.00;98648.88;4823403;29;20042;-60
2022/01/08 00:17:53;;;;;;;65.10;26.63;;;;;;;-1.71;100.00;98653.84;4823416;29;20099;-59
2022/01/08 00:20:19;;;;;;;66.38;25.50;;;;;;;-1.68;100.00;98650.97;4823467;29;20506;-60
2022/01/08 00:22:45;;;;;;;70.90;26.07;;;;;;;-1.58;100.00;98651.84;4823445;29;20034;-60
2022/01/08 00:25:11;;;;;;;68.57;25.67;;;;;;;-1.58;100.00;98645.75;4823267;29;20463;-60
2022/01/08 00:27:37;;;;;;;59.20;24.87;;;;;;;-1.58;100.00;98636.13;4836900;29;20401;-60
2022/01/08 00:30:03;;;;;;;62.95;23.80;;;;;;;-1.65;100.00;98637.63;4823412;29;20065;-60
2022/01/08 00:32:29;;;;;;;64.93;23.17;;;;;;;-1.70;100.00;98634.56;4823580;29;20038;-60
2022/01/08 00:34:54;;;;;;;61.47;24.10;;;;;;;-1.62;100.00;98628.69;4823407;29;20388;-60
2022/01/08 00:37:20;;;;;;;60.60;24.47;;;;;;;-1.62;100.00;98637.38;4823199;29;20034;-60
2022/01/08 00:39:47;;;;;;;54.13;23.17;;;;;;;-1.61;100.00;98622.44;4823353;29;20419;-60
2022/01/08 00:42:13;;;;;;;52.63;22.13;;;;;;;-1.52;100.00;98630.38;4823110;29;20030;-60
2022/01/08 00:44:38;;;;;;;53.17;22.87;;;;;;;-1.46;100.00;98627.19;4823193;29;20034;-59
2022/01/08 00:47:04;;;;;;;55.53;22.83;;;;;;;-1.55;100.00;98630.63;4822946;29;20033;-61
2022/01/08 00:49:30;;;;;;;51.10;21.57;;;;;;;-1.54;100.00;98632.28;4822901;29;20473;-60
2022/01/08 00:51:55;;;;;;;47.73;21.07;;;;;;;-1.55;100.00;98629.78;4821948;29;20035;-60
2022/01/08 00:54:21;;;;;;;50.60;21.30;;;;;;;-1.48;100.00;98626.50;4823151;29;20077;-59
2022/01/08 00:56:46;;;;;;;49.73;21.13;;;;;;;-1.46;100.00;98623.75;4822927;29;20167;-60
2022/01/08 00:59:13;;;;;;;47.00;20.07;;;;;;;-1.48;100.00;98615.19;4822977;29;20042;-60
2022/01/08 01:01:39;;;;;;;47.08;20.08;;;;;;;-1.42;100.00;98616.47;4822871;29;20030;-60
2022/01/08 01:04:04;;;;;;;50.20;20.77;;;;;;;-1.39;100.00;98613.56;4822979;29;20042;-59
2022/01/08 01:06:30;;;;;;;49.43;20.40;;;;;;;-1.37;100.00;98607.22;4821579;29;20038;-59
2022/01/08 01:08:55;;;;;;;48.23;20.67;;;;;;;-1.37;100.00;98601.97;4822925;29;20030;-60
2022/01/08 01:11:21;;;;;;;45.87;20.20;;;;;;;-1.35;100.00;98610.53;4822291;29;20030;-60
2022/01/08 01:13:46;;;;;;;49.80;20.93;;;;;;;-1.37;100.00;98606.38;4822820;29;20038;-60
2022/01/08 01:16:12;;;;;;;47.37;20.87;;;;;;;-1.29;100.00;98607.41;4822731;29;20116;-59
2022/01/08 01:18:38;;;;;;;46.50;19.50;;;;;;;-1.30;100.00;98594.41;4822671;29;20454;-60
2022/01/08 01:21:05;;;;;;;48.80;20.83;;;;;;;-1.54;100.00;98600.84;4822648;29;20066;-60
2022/01/08 01:23:40;;;;;;;47.60;19.70;;;;;;;-1.39;100.00;98597.84;4822477;29;20099;-60
2022/01/08 01:26:10;;;;;;;45.17;20.17;;;;;;;-1.38;100.00;98597.69;4822512;29;20556;-59
2022/01/08 01:28:46;;;;;;;45.10;19.55;;;;;;;-1.34;100.00;98598.25;4822369;29;20546;-60
2022/01/08 01:47:16;;;;;;;48.65;20.13;;;;;;;-1.30;100.00;98569.03;4822210;29;20087;-60
2022/01/08 01:49:45;;;;;;;51.15;22.13;;;;;;;-1.24;100.00;98565.03;4822041;29;20054;-60
2022/01/08 01:52:13;;;;;;;50.88;21.00;;;;;;;-1.24;100.00;98567.66;4822173;29;20034;-60
2022/01/08 01:54:40;;;;;;;55.97;22.55;;;;;;;-1.32;100.00;98560.47;4822206;29;20053;-60
2022/01/08 01:57:08;;;;;;;49.92;22.00;;;;;;;-1.35;100.00;98552.03;4822072;29;20030;-60
2022/01/08 01:59:34;;;;;;;48.40;21.80;;;;;;;-1.42;100.00;98557.00;4822011;29;20030;-60
2022/01/08 02:02:00;;;;;;;51.92;21.80;;;;;;;-1.42;100.00;98559.63;4821987;29;20209;-60
2022/01/08 02:04:26;;;;;;;52.40;22.40;;;;;;;-1.42;100.00;98554.41;4822067;29;20034;-60
2022/01/08 02:06:53;;;;;;;48.85;22.23;;;;;;;-1.47;100.00;98549.53;4822276;29;20038;-60
2022/01/08 02:09:18;;;;;;;50.83;21.20;;;;;;;-1.53;100.00;98552.72;4822028;29;20035;-60
2022/01/08 02:11:58;;;;;;;49.13;20.77;;;;;;;-1.55;100.00;98546.78;4820871;29;20471;-59
2022/01/08 02:14:29;;;;;;;51.22;21.45;;;;;;;-1.52;100.00;98549.13;4822000;29;20357;-60
2022/01/08 02:16:56;;;;;;;55.22;21.67;;;;;;;-1.55;100.00;98546.78;4822006;29;20073;-60
2022/01/08 02:19:21;;;;;;;52.45;21.83;;;;;;;-1.59;100.00;98537.53;4822106;29;20084;-60
2022/01/08 02:21:52;;;;;;;51.67;21.27;;;;;;;-1.62;100.00;98540.44;4822177;29;20035;-59
2022/01/08 02:24:18;;;;;;;55.13;22.38;;;;;;;-1.55;100.00;98532.84;4825091;29;20113;-60
2022/01/08 02:26:43;;;;;;;50.63;22.23;;;;;;;-1.63;100.00;98537.94;4823844;29;20580;-59
2022/01/08 02:29:13;;;;;;;57.10;23.53;;;;;;;-1.74;100.00;98528.41;4825108;29;20026;-60
2022/01/08 02:31:40;;;;;;;54.35;22.60;;;;;;;-1.58;100.00;98526.09;4824955;29;20036;-60
2022/01/08 02:34:06;;;;;;;62.00;23.50;;;;;;;-1.57;100.00;98522.50;4825243;29;20038;-61
2022/01/08 02:36:34;;;;;;;59.13;23.55;;;;;;;-1.71;100.00;98522.03;4823626;29;20038;-60
2022/01/08 02:38:59;;;;;;;58.20;23.83;;;;;;;-1.77;100.00;98518.19;4825283;29;20052;-60
2022/01/08 02:41:27;;;;;;;58.43;23.73;;;;;;;-1.73;100.00;98519.56;4825045;29;20034;-60
2022/01/08 02:43:54;;;;;;;64.35;24.50;;;;;;;-1.74;100.00;98517.94;4824962;29;20030;-61
2022/01/08 02:46:20;;;;;;;57.97;23.60;;;;;;;-1.78;100.00;98511.28;4824982;29;20038;-60
2022/01/08 02:48:46;;;;;;;60.53;24.35;;;;;;;-1.69;100.00;98513.09;4824668;29;20544;-60
2022/01/08 02:51:11;;;;;;;62.90;24.50;;;;;;;-1.62;100.00;98509.00;4824950;29;20050;-60
2022/01/08 02:53:37;;;;;;;60.80;24.33;;;;;;;-1.60;100.00;98504.44;4823702;29;20034;-60
2022/01/08 02:56:03;;;;;;;63.57;24.67;;;;;;;-1.60;100.00;98507.03;4824812;29;20030;-61
2022/01/08 02:58:29;;;;;;;59.00;24.05;;;;;;;-1.77;100.00;98499.84;4824962;29;20038;-60
2022/01/08 03:00:58;;;;;;;60.37;24.13;;;;;;;-1.59;100.00;98497.41;4824567;29;20108;-62
2022/01/08 03:03:24;;;;;;;66.47;24.52;;;;;;;-1.52;100.00;98494.13;4823506;29;20026;-61
2022/01/08 03:05:50;;;;;;;59.78;23.63;;;;;;;-1.47;100.00;98484.03;4823420;29;20042;-61
2022/01/08 03:08:16;;;;;;;59.07;24.53;;;;;;;-1.47;100.00;98491.06;4823322;29;20171;-60
2022/01/08 03:10:42;;;;;;;59.83;23.55;;;;;;;-1.45;100.00;98486.53;4824681;29;20477;-60
2022/01/08 03:13:08;;;;;;;60.90;24.97;;;;;;;-1.53;100.00;98481.97;4824407;29;20038;-60
2022/01/08 03:15:35;;;;;;;60.13;24.02;;;;;;;-1.48;100.00;98471.06;4824228;29;20384;-60
2022/01/08 03:18:05;;;;;;;63.15;24.90;;;;;;;-1.48;100.00;98464.03;4824273;29;20042;-60
2022/01/08 03:20:31;;;;;;;61.20;24.83;;;;;;;-1.44;100.00;98463.78;4824284;29;20034;-60
2022/01/08 03:23:02;;;;;;;61.13;23.52;;;;;;;-1.40;100.00;98457.31;4824292;29;20508;-59
2022/01/08 03:25:30;;;;;;;57.30;23.92;;;;;;;-1.59;100.00;98450.25;4824050;29;20121;-61
2022/01/08 03:27:56;;;;;;;57.40;23.50;;;;;;;-1.47;100.00;98452.59;4824064;29;20397;-60
2022/01/08 03:30:24;;;;;;;56.72;23.73;;;;;;;-1.47;100.00;98451.75;4824202;29;20489;-60
2022/01/08 03:32:52;;;;;;;64.90;24.15;;;;;;;-1.42;100.00;98446.94;4823933;29;20042;-60
2022/01/08 03:35:18;;;;;;;63.03;24.10;;;;;;;-1.42;100.00;98436.47;4824054;29;20026;-61
2022/01/08 03:37:44;;;;;;;60.22;23.48;;;;;;;-1.39;100.00;98435.38;4823969;29;20030;-60
2022/01/08 03:40:10;;;;;;;55.63;22.07;;;;;;;-1.34;100.00;98422.66;4824116;29;20041;-61
2022/01/08 03:42:35;;;;;;;51.73;23.13;;;;;;;-1.38;100.00;98426.53;4823862;29;20030;-60
2022/01/08 03:45:01;;;;;;;58.80;24.03;;;;;;;-1.29;100.00;98423.09;4824177;29;20321;-60
2022/01/08 03:49:52;;;;;;;61.40;24.37;;;;;;;-1.36;100.00;98422.81;4824134;29;20054;-60
2022/01/08 03:52:18;;;;;;;60.93;24.43;;;;;;;-1.31;100.00;98419.78;4823791;29;20512;-61
2022/01/08 03:54:43;;;;;;;54.83;23.70;;;;;;;-1.27;100.00;98415.91;4823737;29;20034;-60
2022/01/08 03:57:09;;;;;;;63.03;23.63;;;;;;;-1.23;100.00;98417.28;4823812;29;20057;-60
2022/01/08 03:59:34;;;;;;;61.20;22.93;;;;;;;-1.21;100.00;98408.31;4823644;29;20034;-60
2022/01/08 04:02:00;;;;;;;57.60;24.00;;;;;;;-1.24;100.00;98410.38;4823777;29;20031;-61
2022/01/08 04:04:26;;;;;;;63.40;23.87;;;;;;;-1.30;100.00;98414.41;4823700;29;20459;-60
2022/01/08 04:06:52;;;;;;;58.80;23.83;;;;;;;-1.24;100.00;98418.25;4823711;29;20740;-61
2022/01/08 04:09:18;;;;;;;62.70;23.20;;;;;;;-1.24;100.00;98418.25;4823635;29;20027;-60
2022/01/08 04:11:44;;;;;;;58.42;24.48;;;;;;;-1.33;100.00;98412.06;4823537;29;20289;-60
2022/01/08 04:14:12;;;;;;;59.33;24.10;;;;;;;-1.38;100.00;98410.78;4823685;29;20062;-60
2022/01/08 04:16:42;;;;;;;62.28;24.00;;;;;;;-1.43;100.00;98410.41;4822436;29;20054;-60
2022/01/08 04:19:07;;;;;;;64.93;25.05;;;;;;;-1.48;100.00;98403.78;4823657;29;20485;-60
2022/01/08 04:24:01;;;;;;;62.77;26.10;;;;;;;-1.53;100.00;98392.91;4823766;29;20030;-60
2022/01/08 04:26:30;;;;;;;63.97;24.58;;;;;;;-1.52;100.00;98396.34;4823348;29;20035;-61
2022/01/08 04:28:58;;;;;;;65.45;24.48;;;;;;;-1.51;100.00;98390.97;4822168;29;20038;-60
2022/01/08 04:31:25;;;;;;;61.75;24.77;;;;;;;-1.33;100.00;98387.63;4823444;29;20042;-59
2022/01/08 04:33:53;;;;;;;68.68;25.23;;;;;;;-1.30;100.00;98396.06;4822119;29;20030;-61
2022/01/08 04:36:19;;;;;;;69.40;26.10;;;;;;;-1.23;100.00;98388.44;4821968;29;20491;-61
2022/01/08 04:38:45;;;;;;;63.13;25.48;;;;;;;-1.20;100.00;98394.25;4823180;29;20086;-60
2022/01/08 04:41:11;;;;;;;68.47;25.97;;;;;;;-1.14;100.00;98384.97;4823134;29;20034;-60
2022/01/08 04:43:38;;;;;;;67.13;25.27;;;;;;;-1.12;100.00;98388.28;4823175;29;20270;-60
2022/01/08 04:46:04;;;;;;;71.70;25.38;;;;;;;-1.16;100.00;98389.56;4822210;29;20074;-60
2022/01/08 04:48:31;;;;;;;65.25;24.92;;;;;;;-1.15;100.00;98388.56;4822794;29;20489;-61
2022/01/08 04:50:57;;;;;;;68.80;25.95;;;;;;;-1.13;100.00;98390.06;4822987;29;20045;-61
2022/01/08 04:53:22;;;;;;;65.13;25.53;;;;;;;-1.08;100.00;98392.28;4823191;29;20045;-58
2022/01/08 04:55:51;;;;;;;68.70;25.43;;;;;;;-1.14;100.00;98392.84;4821610;29;20537;-59
2022/01/08 04:58:17;;;;;;;69.07;24.88;;;;;;;-1.04;100.00;98387.59;4821678;29;20034;-58
2022/01/08 05:00:42;;;;;;;65.17;25.00;;;;;;;-1.02;100.00;98388.25;4822848;29;20570;-59
2022/01/08 05:03:08;;;;;;;61.17;24.77;;;;;;;-1.00;100.00;98378.47;4822822;29;20030;-58
2022/01/08 05:05:33;;;;;;;72.60;27.20;;;;;;;-1.05;100.00;98378.91;4822672;29;20030;-58
2022/01/08 05:07:59;;;;;;;76.23;27.07;;;;;;;-1.03;100.00;98378.72;4822551;29;20040;-58
2022/01/08 05:10:24;;;;;;;82.83;27.27;;;;;;;-1.08;100.00;98375.72;4822752;29;20061;-58
2022/01/08 05:12:50;;;;;;;74.77;26.93;;;;;;;-1.01;100.00;98371.56;4822635;29;20034;-58
2022/01/08 05:15:17;;;;;;;68.33;25.17;;;;;;;-1.03;100.00;98368.25;4821504;29;20034;-58
2022/01/08 05:17:44;;;;;;;73.82;26.65;;;;;;;-0.96;100.00;98370.19;4822649;29;20076;-57
2022/01/08 05:20:12;;;;;;;74.63;26.45;;;;;;;-0.94;100.00;98364.78;4822649;29;20039;-59
2022/01/08 05:22:51;;;;;;;80.05;27.42;;;;;;;-0.95;100.00;98363.97;4822509;29;20034;-59
2022/01/08 05:25:19;;;;;;;76.15;26.48;;;;;;;-0.89;100.00;98368.63;4822441;29;20038;-58
2022/01/08 05:27:45;;;;;;;77.43;26.77;;;;;;;-0.90;100.00;98364.34;4822647;29;20108;-58
2022/01/08 05:30:12;;;;;;;75.85;27.95;;;;;;;-0.97;100.00;98359.81;4822457;29;20071;-58
2022/01/08 05:32:38;;;;;;;75.78;27.48;;;;;;;-1.11;100.00;98354.06;4822455;29;20038;-58
2022/01/08 05:35:04;;;;;;;70.75;26.25;;;;;;;-1.19;100.00;98355.75;4821185;29;20034;-58
2022/01/08 05:37:29;;;;;;;72.70;27.03;;;;;;;-1.35;100.00;98358.94;4822763;29;20133;-59
2022/01/08 05:39:56;;;;;;;76.33;27.83;;;;;;;-1.48;100.00;98364.47;4821251;29;20280;-58
2022/01/08 05:42:21;;;;;;;75.20;27.70;;;;;;;-1.61;100.00;98357.84;4822675;29;20516;-58
2022/01/08 05:44:47;;;;;;;75.87;27.03;;;;;;;-1.71;100.00;98352.63;4822343;29;20047;-58
2022/01/08 05:47:13;;;;;;;75.07;25.73;;;;;;;-1.82;100.00;98353.59;4822434;29;20050;-58
2022/01/08 05:49:39;;;;;;;83.63;25.55;;;;;;;-1.97;100.00;98357.59;4822141;29;20072;-58
2022/01/08 05:52:05;;;;;;;85.23;26.37;;;;;;;-2.09;100.00;98345.59;4822207;29;20038;-59
2022/01/08 05:54:30;;;;;;;76.47;24.90;;;;;;;-2.20;100.00;98351.78;4822181;29;20114;-59
2022/01/08 05:56:56;;;;;;;90.07;28.57;;;;;;;-2.23;100.00;98353.84;4822327;29;20038;-59
2022/01/08 05:59:24;;;;;;;86.20;28.37;;;;;;;-2.20;100.00;98362.25;4825695;29;20065;-58
2022/01/08 06:01:50;;;;;;;87.53;28.08;;;;;;;-2.27;100.00;98363.75;4825724;29;20034;-58
2022/01/08 06:04:16;;;;;;;88.30;27.33;;;;;;;-2.38;100.00;98360.41;4825855;29;20404;-61
2022/01/08 06:06:41;;;;;;;73.57;25.60;;;;;;;-2.49;100.00;98358.75;4825511;29;20042;-58
2022/01/08 06:09:07;;;;;;;82.23;26.83;;;;;;;-2.62;100.00;98351.13;4825481;29;20095;-61
2022/01/08 06:11:33;;;;;;;80.17;25.97;;;;;;;-2.72;100.00;98345.03;4825370;29;20045;-61
2022/01/08 06:13:59;;;;;;;83.60;26.33;;;;;;;-2.86;100.00;98339.34;4825258;29;20627;-61
2022/01/08 06:16:24;;;;;;;87.80;27.60;;;;;;;-2.96;100.00;98342.75;4825129;29;20117;-61
2022/01/08 06:18:50;;;;;;;90.83;25.63;;;;;;;-3.02;100.00;98345.91;4824043;29;20054;-61
2022/01/08 06:21:15;;;;;;;75.73;25.97;;;;;;;-3.10;100.00;98340.47;4825295;29;20133;-61
2022/01/08 06:23:41;;;;;;;86.30;29.17;;;;;;;-3.13;100.00;98345.16;4825094;29;20038;-61
2022/01/08 06:26:07;;;;;;;88.97;28.10;;;;;;;-3.14;100.00;98339.09;4825047;29;20026;-61
2022/01/08 06:28:33;;;;;;;85.60;27.17;;;;;;;-3.23;100.00;98339.06;4824999;29;20027;-61
2022/01/08 06:30:58;;;;;;;94.88;27.60;;;;;;;-3.26;100.00;98334.91;4825139;29;20485;-61
2022/01/08 06:33:24;;;;;;;96.43;27.43;;;;;;;-3.33;100.00;98342.41;4839210;29;20038;-61
2022/01/08 06:35:51;;;;;;;98.13;27.83;;;;;;;-3.42;100.00;98348.41;4825096;29;20026;-61
2022/01/08 06:38:20;;;;;;;92.28;28.20;;;;;;;-3.48;100.00;98340.28;4825009;29;20176;-61
2022/01/08 06:40:46;;;;;;;94.80;28.17;;;;;;;-3.54;100.00;98340.78;4824856;29;20496;-61
2022/01/08 06:43:12;;;;;;;98.60;28.73;;;;;;;-3.57;100.00;98338.41;4823593;29;20022;-61
2022/01/08 06:45:37;;;;;;;93.68;27.23;;;;;;;-3.61;100.00;98337.03;4824848;29;20049;-61
2022/01/08 06:48:03;;;;;;;97.57;27.47;;;;;;;-3.63;100.00;98337.16;4824794;29;20050;-61
2022/01/08 06:50:29;;;;;;;105.73;32.03;;;;;;;-3.63;100.00;98346.75;4825064;29;20030;-62
2022/01/08 06:52:55;;;;;;;107.87;30.10;;;;;;;-3.65;100.00;98331.22;4824776;29;20270;-63
2022/01/08 06:55:22;;;;;;;94.53;28.67;;;;;;;-3.70;100.00;98334.22;4824717;29;20034;-63
2022/01/08 06:57:48;;;;;;;99.20;29.60;;;;;;;-3.69;100.00;98338.47;4824599;29;20038;-62
2022/01/08 07:00:14;;;;;;;101.47;29.20;;;;;;;-3.66;100.00;98338.22;4824908;29;20499;-65
2022/01/08 07:02:40;;;;;;;103.70;29.13;;;;;;;-3.52;100.00;98336.25;4824577;29;20034;-63
2022/01/08 07:05:06;;;;;;;114.40;30.47;;;;;;;-3.51;100.00;98343.13;4824591;29;20489;-63
2022/01/08 07:07:31;;;;;;;115.93;29.67;;;;;;;-3.46;100.00;98346.22;4824765;29;20278;-62
2022/01/08 07:09:57;;;;;;;114.03;31.30;;;;;;;-3.38;100.00;98352.44;4824002;29;20090;-63
2022/01/08 07:12:23;;;;;;;127.07;33.03;;;;;;;-3.21;100.00;98351.00;4824569;29;20040;-67
2022/01/08 07:14:48;;;;;;;123.40;34.73;;;;;;;-3.08;100.00;98353.41;4824461;29;20034;-64
2022/01/08 07:17:14;;;;;;;127.53;34.57;;;;;;;-2.93;100.00;98347.72;4823191;29;20038;-61
2022/01/08 07:19:39;;;;;;;134.77;33.90;;;;;;;-2.77;100.00;98341.19;4823173;29;20022;-61
2022/01/08 07:22:05;;;;;;;137.27;35.03;;;;;;;-2.70;100.00;98360.59;4824382;29;20033;-61
2022/01/08 07:24:30;;;;;;;132.07;33.83;;;;;;;-2.47;100.00;98351.59;4824212;29;20098;-61
2022/01/08 07:26:56;;;;;;;137.07;33.63;;;;;;;-2.35;100.00;98350.53;4824245;29;20054;-61
2022/01/08 07:29:21;;;;;;;135.50;35.17;;;;;;;-2.27;100.00;98345.44;4823151;29;20035;-60
2022/01/08 07:31:47;;;;;;;140.30;36.37;;;;;;;-1.99;100.00;98343.81;4824306;29;20113;-61
2022/01/08 07:34:13;;;;;;;143.87;36.00;;;;;;;-1.85;100.00;98351.25;4822922;29;20091;-61
2022/01/08 07:36:38;;;;;;;132.53;36.27;;;;;;;-1.78;100.00;98348.09;4822745;29;20417;-60
2022/01/08 07:39:04;;;;;;;131.33;34.33;;;;;;;-1.67;100.00;98354.00;4824278;29;20392;-60
2022/01/08 07:41:29;;;;;;;121.93;31.23;;;;;;;-1.48;100.00;98354.00;4823913;29;20038;-61
2022/01/08 07:43:55;;;;;;;116.10;32.60;;;;;;;-1.52;100.00;98357.88;4823690;29;20414;-61
2022/01/08 07:46:21;;;;;;;108.90;30.83;;;;;;;-1.41;100.00;98353.44;4823706;29;20034;-62
2022/01/08 07:48:46;;;;;;;103.63;30.03;;;;;;;-1.45;100.00;98352.88;4823641;29;20046;-61
2022/01/08 07:51:12;;;;;;;93.53;27.97;;;;;;;-1.38;100.00;98350.53;4822974;29;20034;-60
2022/01/08 07:53:38;;;;;;;90.50;28.13;;;;;;;-1.21;100.00;98339.31;4823131;29;20038;-60
2022/01/08 07:56:05;;;;;;;98.17;27.33;;;;;;;-1.14;100.00;98340.41;4823185;29;20035;-61
2022/01/08 07:58:30;;;;;;;80.72;25.85;;;;;;;-1.00;100.00;98342.56;4823292;29;20043;-61
2022/01/08 08:00:57;;;;;;;76.83;24.47;;;;;;;-0.92;100.00;98342.69;4823434;29;20364;-60
2022/01/08 08:03:22;;;;;;;82.32;25.25;;;;;;;-0.82;100.00;98353.16;4823466;29;20034;-60
2022/01/08 08:05:49;;;;;;;75.10;25.47;;;;;;;-0.77;100.00;98351.75;4823343;29;20042;-61
2022/01/08 08:08:20;;;;;;;69.32;25.08;;;;;;;-0.58;100.00;98352.66;4823489;29;20043;-61
2022/01/08 08:10:49;;;;;;;65.07;22.90;;;;;;;-0.37;100.00;98342.72;4823044;29;20117;-62
2022/01/08 08:13:20;;;;;;;66.43;24.52;;;;;;;-0.13;100.00;98340.38;4823691;29;20041;-61
2022/01/08 08:15:46;;;;;;;71.35;24.35;;;;;;;0.15;100.00;98335.84;4823533;29;20093;-61
2022/01/08 08:18:12;;;;;;;58.78;22.50;;;;;;;-0.18;100.00;98328.63;4823687;29;20100;-61
2022/01/08 08:20:39;;;;;;;59.93;21.53;;;;;;;0.12;100.00;98325.63;4823318;29;20034;-61
2022/01/08 08:23:04;;;;;;;57.50;21.17;;;;;;;0.34;100.00;98313.88;4823477;29;20062;-61
2022/01/08 08:25:31;;;;;;;58.23;21.43;;;;;;;0.12;100.00;98317.75;4823388;29;20058;-61
2022/01/08 08:27:56;;;;;;;54.25;21.08;;;;;;;-0.02;100.00;98339.31;4823281;29;20038;-61
2022/01/08 08:30:22;;;;;;;58.70;21.27;;;;;;;0.14;100.00;98333.38;4823222;29;20374;-60
2022/01/08 08:32:49;;;;;;;50.50;18.60;;;;;;;0.09;100.00;98354.03;4823322;29;20030;-61
2022/01/08 08:35:16;;;;;;;49.05;18.25;;;;;;;0.22;100.00;98342.19;4823282;29;20466;-60
2022/01/08 08:37:42;;;;;;;44.35;18.05;;;;;;;0.48;100.00;98351.91;4822999;29;20036;-61
2022/01/08 08:40:11;;;;;;;54.60;19.80;;;;;;;0.61;100.00;98347.06;4823054;29;20034;-61
2022/01/08 08:42:37;;;;;;;51.63;18.50;;;;;;;0.76;100.00;98344.72;4821948;29;20030;-61
2022/01/08 08:45:05;;;;;;;51.30;19.00;;;;;;;0.93;100.00;98349.94;4821751;29;20053;-61
2022/01/08 08:47:31;;;;;;;49.30;19.30;;;;;;;0.60;100.00;98350.69;4822364;29;20042;-62
2022/01/08 08:49:59;;;;;;;44.53;18.10;;;;;;;0.92;100.00;98348.31;4821204;29;20038;-61
2022/01/08 08:52:24;;;;;;;42.95;17.80;;;;;;;0.88;100.00;98360.09;4822920;29;20262;-62
2022/01/08 08:54:50;;;;;;;41.40;16.37;;;;;;;0.89;100.00;98359.13;4822684;29;20041;-61
2022/01/08 08:57:16;;;;;;;39.17;15.50;;;;;;;1.14;100.00;98364.53;4822083;29;20102;-62
2022/01/08 08:59:42;;;;;;;40.97;15.63;;;;;;;1.44;100.00;98354.31;4821822;29;20262;-60
2022/01/08 09:02:08;;;;;;;41.63;16.30;;;;;;;1.82;100.00;98346.91;4822785;29;20045;-62
2022/01/08 09:04:34;;;;;;;39.40;15.43;;;;;;;0.64;100.00;98352.03;4822737;29;20049;-62
2022/01/08 09:06:59;;;;;;;40.63;16.77;;;;;;;0.71;100.00;98332.84;4822519;29;20748;-62
2022/01/08 09:09:26;;;;;;;38.97;16.57;;;;;;;0.92;100.00;98335.16;4821349;29;20026;-62
2022/01/08 09:11:52;;;;;;;35.93;16.00;;;;;;;0.92;100.00;98342.22;4822550;29;20046;-60
2022/01/08 09:14:17;;;;;;;36.27;15.90;;;;;;;0.65;100.00;98338.75;4822577;29;20293;-60
2022/01/08 09:16:49;;;;;;;36.77;13.97;;;;;;;0.75;100.00;98320.22;4822425;29;20053;-61
2022/01/08 09:19:16;;;;;;;34.95;15.68;;;;;;;0.90;100.00;98326.59;4822342;29;20030;-61
2022/01/08 09:21:41;;;;;;;35.67;14.48;;;;;;;0.72;100.00;98331.88;4822689;29;20033;-60
2022/01/08 09:24:08;;;;;;;34.87;13.63;;;;;;;0.81;100.00;98334.59;4821191;29;20507;-60
2022/01/08 09:26:33;;;;;;;30.92;13.40;;;;;;;0.67;100.00;98326.28;4822217;29;20038;-61
2022/01/08 09:28:59;;;;;;;30.80;12.50;;;;;;;0.46;100.00;98336.31;4822062;29;20037;-61
2022/01/08 09:31:25;;;;;;;33.10;13.53;;;;;;;0.61;100.00;98342.66;4821720;29;20030;-60
2022/01/08 09:33:50;;;;;;;33.93;13.23;;;;;;;0.89;100.00;98347.78;4822033;29;20037;-61
2022/01/08 09:36:16;;;;;;;33.27;13.43;;;;;;;0.94;100.00;98350.75;4822012;29;20110;-61
2022/01/08 09:38:42;;;;;;;32.70;12.77;;;;;;;0.93;100.00;98362.25;4822038;29;20443;-61
2022/01/08 09:41:08;;;;;;;32.00;12.85;;;;;;;1.66;100.00;98360.84;4822162;29;20034;-61
2022/01/08 09:43:35;;;;;;;29.03;12.07;;;;;;;1.49;100.00;98374.94;4822181;29;20042;-61
2022/01/08 09:46:00;;;;;;;28.40;12.10;;;;;;;1.91;100.00;98366.19;4822011;29;20545;-61
2022/01/08 09:48:26;;;;;;;31.67;13.50;;;;;;;0.74;100.00;98386.94;4821696;29;20306;-62
2022/01/08 09:50:51;;;;;;;33.43;13.77;;;;;;;1.27;100.00;98365.75;4821957;29;20095;-61
2022/01/08 09:53:17;;;;;;;33.60;13.83;;;;;;;0.78;100.00;98385.69;4821991;29;20038;-61
2022/01/08 09:55:42;;;;;;;32.00;12.77;;;;;;;0.60;100.00;98384.84;4820682;29;20054;-61
2022/01/08 09:58:09;;;;;;;32.70;12.67;;;;;;;0.67;100.00;98394.63;4820776;29;20065;-62
2022/01/08 10:00:36;;;;;;;34.75;13.52;;;;;;;1.04;100.00;98390.94;4821758;29;20042;-61
2022/01/08 10:03:20;;;;;;;32.70;13.93;;;;;;;1.39;100.00;98385.56;4821866;29;20045;-61
2022/01/08 10:05:54;;;;;;;34.53;12.75;;;;;;;0.93;100.00;98375.41;4822223;29;20042;-61
2022/01/08 10:08:32;;;;;;;32.13;13.07;;;;;;;1.54;100.00;98371.81;4821866;29;20030;-61
2022/01/08 10:11:00;;;;;;;30.40;12.30;;;;;;;1.80;100.00;98373.41;4821598;29;20285;-61
2022/01/08 10:13:35;;;;;;;28.47;13.70;;;;;;;1.88;100.00;98369.13;4820580;29;20282;-62
2022/01/08 10:18:47;;;;;;;26.63;11.57;;;;;;;1.18;100.00;98365.88;4821710;29;20327;-61
2022/01/08 10:21:17;;;;;;;28.53;12.30;;;;;;;1.78;100.00;98358.72;4821849;29;20266;-61
2022/01/08 10:23:44;;;;;;;33.07;13.07;;;;;;;1.65;100.00;98350.44;4821755;29;20273;-61
2022/01/08 10:26:13;;;;;;;27.60;11.70;;;;;;;1.81;100.00;98355.78;4821824;29;20403;-61
2022/01/08 10:28:41;;;;;;;23.40;10.53;;;;;;;1.73;100.00;98347.88;4821773;29;20293;-61
2022/01/08 10:31:23;;;;;;;26.23;11.90;;;;;;;1.62;100.00;98348.13;4821670;29;20276;-61
2022/01/08 10:33:50;;;;;;;24.20;11.37;;;;;;;1.81;100.00;98347.88;4821872;29;20289;-61
2022/01/08 10:36:25;;;;;;;25.57;11.30;;;;;;;1.77;100.00;98350.00;4821690;29;20322;-61
2022/01/08 10:38:52;;;;;;;26.67;11.97;;;;;;;1.89;100.00;98345.25;4821696;29;20334;-61
2022/01/08 10:41:18;;;;;;;25.83;12.00;;;;;;;1.75;100.00;98335.34;4822088;29;20794;-61
2022/01/08 10:43:45;;;;;;;28.80;11.60;;;;;;;1.70;100.00;98327.94;4822658;29;20629;-61
2022/01/08 10:46:17;;;;;;;28.87;11.77;;;;;;;1.45;100.00;98331.47;4824813;29;20270;-61
2022/01/08 10:48:50;;;;;;;26.27;11.23;;;;;;;1.75;100.00;98317.72;4824416;29;20764;-61
2022/01/08 10:51:26;;;;;;;25.17;11.15;;;;;;;1.57;100.00;98324.09;4824569;29;20316;-61
2022/01/08 10:54:28;;;;;;;25.50;11.17;;;;;;;1.52;100.00;98327.19;4823518;29;20627;-61
2022/01/08 10:56:56;;;;;;;25.70;11.00;;;;;;;1.45;100.00;98331.47;4786000;30;20333;-61
2022/01/08 10:59:24;;;;;;;26.33;12.30;;;;;;;0.97;100.00;98337.31;4786081;30;20293;-60
2022/01/08 11:01:52;;;;;;;27.20;12.03;;;;;;;1.34;100.00;98335.19;4785967;30;20283;-61
2022/01/08 11:04:38;;;;;;;29.73;12.30;;;;;;;1.12;100.00;98337.56;4786065;30;20686;-61
2022/01/08 11:07:17;;;;;;;28.70;12.93;;;;;;;1.30;100.00;98333.03;4785794;30;20368;-60
2022/01/08 11:09:46;;;;;;;35.73;16.00;;;;;;;1.31;100.00;98332.06;4785815;30;20351;-60
2022/01/08 11:12:16;;;;;;;32.13;13.90;;;;;;;1.31;100.00;98335.50;4785703;30;20290;-61
2022/01/08 11:17:29;;;;;;;33.97;13.47;;;;;;;0.90;100.00;98329.22;4785689;30;20549;-60
2022/01/08 11:20:30;;;;;;;31.20;13.17;;;;;;;0.70;100.00;98319.84;4785761;30;20275;-61
2022/01/08 11:22:57;;;;;;;32.65;13.35;;;;;;;0.94;100.00;98324.44;4782963;30;20150;-61
2022/01/08 11:25:27;;;;;;;36.95;15.23;;;;;;;0.96;100.00;98320.69;4785566;30;20116;-60
2022/01/08 11:28:15;;;;;;;35.07;14.73;;;;;;;0.93;100.00;98307.84;4770744;30;20039;-61
2022/01/08 11:30:51;;;;;;;37.90;14.20;;;;;;;1.25;100.00;98301.94;4801824;29;20377;-62
2022/01/08 11:33:26;;;;;;;35.63;14.30;;;;;;;0.55;100.00;98311.72;4837855;29;20038;-61
2022/01/08 11:35:53;;;;;;;37.63;14.53;;;;;;;0.84;100.00;98303.53;4823742;29;20125;-60
2022/01/08 11:38:20;;;;;;;33.90;14.70;;;;;;;1.18;100.00;98300.91;4823866;29;20274;-61